Watson, Texas
Current Conditions -  °F | °C
As of 5:55 PM on Wednesday 22 Oct 2014 (Local Time) from KLZZ Reporting Station
Clear Clear  
Wind Chill: 77°   Ceiling: Unl
Heat Index: 79°   Visibility: 10mi
Dew Point: 60°   Wind: 3mph
Humidity: 55%   Direction: 120°ESE
Pressure: 30.07"   Gusts: NA
Location:  31.1064°N, 98.2303°W
Report Text: KLZZ 222255Z AUTO 12003KT 10SM CLR 25/15 A3007 RMK AO2 T02490154
Loading
Personal Weather Stations






























Interactive Weather Map
Tropical Storm Tracking
New forecast layout! Learn more

10-Day Weather Forecast

Advertisements
Track Severe Weather on mobile